Flight Track Log - Related Links

Times and Time Zones

All times are in EDT time to prevent confusion due to time zone crossing. See the EGF4269 flight status page for this flight to view local times or setup timezone preferences in your user account.

Time Position Orientation Groundspeed Altitude Reporting Facility
EDT Latitude Longitude Course Direction KTS MPH feet Rate Location/Type
Tue 11:06:26 PM 42.0000 -87.9333 78° East 158 182 1,500  Level Chicago TRACON
Tue 11:07:32 PM 42.0000 -87.8667 90° East 214 246 4,000 1,444 Climbing Chicago TRACON
Tue 11:08:00 PM 42.0209 -87.6165 71° East  Level FlightAware Approximate
Tue 11:09:00 PM 42.0406 -87.4702 83° East  Level FlightAware Approximate
Tue 11:09:08 PM 42.0128 -87.7178 83° East 251 289 5,400  Level Chicago Center
Tue 11:10:00 PM 42.0569 -87.3222 78° East  Level FlightAware Approximate
Tue 11:10:09 PM 42.0292 -87.6183 77° East 271 312 7,900  Level Chicago Center
Tue 11:11:00 PM 42.0794 -87.1756 78° East  Level FlightAware Approximate
Tue 11:11:10 PM 42.0472 -87.5050 78° East 308 354 10,000  Level Chicago Center
Tue 11:12:11 PM 42.0656 -87.3825 79° East 333 383 11,900 1,475 Climbing Chicago Center
Tue 11:13:12 PM 42.0847 -87.2433 79° East 380 437 13,000 1,230 Climbing Chicago Center
Tue 11:14:13 PM 42.1075 -87.0928 78° East 409 471 14,400 1,426 Climbing Chicago Center
Tue 11:15:14 PM 42.1211 -86.9403 83° East 411 473 15,900 1,279 Climbing Chicago Center
Tue 11:16:15 PM 42.1233 -86.7789 89° East 424 488 17,000 541 Climbing Chicago Center
Tue 11:17:16 PM 42.1283 -86.6042 88° East 457 526 17,000 -738 Level Chicago Center
Tue 11:18:17 PM 42.1222 -86.4400 93° East 443 510 15,500 -1,721 Descending Chicago Center
Tue 11:19:18 PM 42.1017 -86.2822 100° East 430 495 13,500 -1,967 Descending Chicago Center
Tue 11:20:19 PM 42.0803 -86.1292 101° East 418 481 11,500 -1,230 Descending Chicago Center
Tue 11:21:20 PM 42.0600 -85.9622 99° East 405 466 11,000 -246 Descending Chicago Center
Tue 11:22:21 PM 42.0414 -85.8133 100° East 406 467 11,000 -393 Level Chicago Center
Tue 11:23:22 PM 42.0350 -85.6883 94° East 337 388 10,200 -2,016 Descending Chicago Center
Tue 11:24:23 PM 42.0378 -85.5653 88° East 305 351 6,900 -3,246 Descending Chicago Center

Login

Don't have an account? Register now (free) for customized features, flight alerts, and more!